Time;durP1;ratioP1;P1;durP2;ratioP2;P2;SDS_P1;SDS_P2;PMS_P1;PMS_P2;Temp;Humidity;BMP_temperature;BMP_pressure;BME280_temperature;BME280_humidity;BME280_pressure;Samples;Min_cycle;Max_cycle;Signal;HPM_P1;HPM_P2
2021/04/21 00:01:00;;;;;;;45.00;26.15;;;;;;;8.21;68.60;101554.47;5106652;28;20024;-62
2021/04/21 00:03:25;;;;;;;45.92;25.70;;;;;;;8.18;68.52;101557.94;5101738;28;20020;-62
2021/04/21 00:05:52;;;;;;;45.53;25.67;;;;;;;8.10;68.71;101555.97;5106600;28;20390;-62
2021/04/21 00:08:19;;;;;;;45.08;26.20;;;;;;;8.06;68.92;101560.25;5103443;28;20027;-62
2021/04/21 00:10:45;;;;;;;46.30;26.20;;;;;;;8.06;69.20;101554.09;5106714;28;20024;-62
2021/04/21 00:13:11;;;;;;;45.33;27.23;;;;;;;8.09;69.37;101551.53;5103947;28;20378;-62
2021/04/21 00:15:37;;;;;;;46.22;27.48;;;;;;;8.03;69.25;101550.50;5105326;28;20027;-62
2021/04/21 00:18:05;;;;;;;45.83;27.15;;;;;;;7.95;69.95;101549.44;5104215;28;20500;-62
2021/04/21 00:20:31;;;;;;;47.72;28.58;;;;;;;7.89;69.76;101549.25;5104412;28;20440;-62
2021/04/21 00:23:00;;;;;;;44.95;27.15;;;;;;;7.78;69.84;101550.75;5105323;28;20084;-62
2021/04/21 00:25:28;;;;;;;47.17;28.08;;;;;;;7.70;70.47;101549.63;5103967;28;20059;-62
2021/04/21 00:27:54;;;;;;;47.25;28.45;;;;;;;7.62;70.89;101544.16;5105663;28;20030;-63
2021/04/21 00:30:23;;;;;;;49.42;29.38;;;;;;;7.45;72.14;101556.84;5102778;28;20028;-62
2021/04/21 00:32:51;;;;;;;49.10;28.60;;;;;;;7.53;71.68;101550.06;5099053;28;20084;-62
2021/04/21 00:35:24;;;;;;;46.65;28.48;;;;;;;7.55;71.19;101547.47;5099087;28;20036;-62
2021/04/21 00:37:51;;;;;;;;;;;;;;;7.56;67.26;101547.50;5098154;28;20454;-62
2021/04/21 00:40:20;;;;;;;44.90;26.17;;;;;;;7.46;71.44;101550.72;5098770;28;20007;-62
2021/04/21 00:42:58;;;;;;;45.28;26.98;;;;;;;7.36;70.75;101546.06;5098568;28;20047;-62
2021/04/21 00:45:32;;;;;;;46.13;26.60;;;;;;;7.22;72.00;101549.16;5100070;28;20119;-62
2021/04/21 00:48:03;;;;;;;45.80;26.77;;;;;;;7.18;73.30;101549.03;5104901;27;20027;-62
2021/04/21 00:50:54;;;;;;;46.03;28.00;;;;;;;7.20;71.52;101549.97;5104491;28;20062;-62
2021/04/21 00:53:30;;;;;;;47.40;27.85;;;;;;;7.18;72.26;101552.56;5100141;28;20086;-62
2021/04/21 00:56:15;;;;;;;48.10;28.52;;;;;;;7.24;71.06;101546.59;5104060;28;20106;-62
2021/04/21 00:58:49;;;;;;;48.40;29.33;;;;;;;7.01;72.41;101548.53;5098073;28;20020;-62
2021/04/21 01:01:16;;;;;;;46.60;28.10;;;;;;;6.78;72.95;101548.72;5099192;28;20401;-62
2021/04/21 01:03:43;;;;;;;50.45;30.17;;;;;;;6.67;74.04;101542.22;5105607;28;20386;-62
2021/04/21 01:06:14;;;;;;;50.72;29.27;;;;;;;6.62;74.46;101542.97;5102059;28;20035;-62
2021/04/21 01:08:43;;;;;;;52.88;32.25;;;;;;;6.65;74.74;101544.81;5098181;28;20035;-62
2021/04/21 01:11:17;;;;;;;51.13;31.10;;;;;;;6.59;75.50;101544.63;5098601;28;20048;-62
2021/04/21 01:13:49;;;;;;;48.95;28.73;;;;;;;6.59;74.18;101545.50;5099046;28;20420;-62
2021/04/21 01:16:20;;;;;;;49.60;30.40;;;;;;;6.60;74.22;101536.78;5104814;28;20055;-62
2021/04/21 01:18:47;;;;;;;49.58;29.60;;;;;;;6.60;74.48;101538.53;5102358;28;20020;-62
2021/04/21 01:21:25;;;;;;;47.70;29.25;;;;;;;6.57;74.69;101541.94;5105401;28;20035;-62
2021/04/21 01:24:02;;;;;;;48.05;28.45;;;;;;;6.54;74.30;101531.34;5103408;28;20355;-62
2021/04/21 01:26:50;;;;;;;51.08;29.75;;;;;;;6.58;72.85;101535.88;5102817;28;20039;-62
2021/04/21 01:29:38;;;;;;;48.40;29.50;;;;;;;6.57;74.23;101530.56;5098756;28;20150;-63
2021/04/21 01:32:12;;;;;;;51.05;28.80;;;;;;;6.53;74.50;101529.56;5101452;28;20074;-62
2021/04/21 01:34:39;;;;;;;50.92;29.83;;;;;;;6.43;74.79;101537.97;5097470;28;20016;-62
2021/04/21 01:37:07;;;;;;;48.72;29.00;;;;;;;6.41;74.76;101526.56;5104758;28;20023;-62
2021/04/21 01:39:39;;;;;;;52.33;30.80;;;;;;;6.36;75.24;101528.13;5102082;28;20107;-62
2021/04/21 01:42:05;;;;;;;50.93;29.57;;;;;;;6.37;75.25;101532.53;5104571;28;20586;-62
2021/04/21 01:44:42;;;;;;;52.58;29.27;;;;;;;6.38;74.72;101534.34;5102365;27;20483;-62
2021/04/21 01:47:16;;;;;;;51.30;30.70;;;;;;;6.38;74.85;101531.72;5094040;28;20420;-62
2021/04/21 01:50:00;;;;;;;52.45;31.52;;;;;;;6.35;74.21;101528.94;5099235;28;20034;-62
2021/04/21 01:52:54;;;;;;;50.53;30.15;;;;;;;6.33;73.39;101528.91;5102814;28;20023;-62
2021/04/21 01:55:19;;;;;;;48.25;28.90;;;;;;;6.21;74.71;101526.78;5101388;28;20410;-62
2021/04/21 01:58:24;;;;;;;49.05;28.42;;;;;;;6.21;73.97;101531.16;5103794;28;20030;-62
2021/04/21 02:00:53;;;;;;;50.30;29.42;;;;;;;6.15;75.82;101537.09;5100849;28;20025;-62
2021/04/21 02:03:36;;;;;;;50.50;28.80;;;;;;;6.13;75.36;101530.91;5104136;28;20035;-62
2021/04/21 02:06:20;;;;;;;;;;;;;;;6.11;72.34;101536.06;5097978;28;20032;-62
2021/04/21 02:09:20;;;;;;;52.15;29.38;;;;;;;5.90;75.57;101544.09;5100767;28;19912;-62
2021/04/21 02:11:53;;;;;;;49.28;28.30;;;;;;;5.88;76.95;101540.53;5058160;28;20076;-62
2021/04/21 02:14:32;;;;;;;49.78;30.50;;;;;;;5.84;77.19;101537.72;5060248;28;20041;-62
2021/04/21 02:17:16;;;;;;;49.72;29.35;;;;;;;5.88;76.92;101543.16;5061580;28;20045;-62
2021/04/21 02:19:52;;;;;;;51.60;29.98;;;;;;;5.85;77.15;101547.38;5059422;28;20033;-62
2021/04/21 02:22:25;;;;;;;49.20;29.00;;;;;;;5.82;76.61;101550.78;5060173;28;20453;-62
2021/04/21 02:25:09;;;;;;;49.72;29.35;;;;;;;5.84;75.66;101553.47;5061514;28;20029;-62
2021/04/21 02:27:59;;;;;;;49.47;28.70;;;;;;;5.92;76.19;101549.38;5059442;28;20044;-62
2021/04/21 02:30:49;;;;;;;55.30;31.70;;;;;;;5.98;75.54;101541.75;5058336;28;20040;-62
2021/04/21 02:33:42;;;;;;;52.17;30.52;;;;;;;5.99;75.54;101550.53;5060652;28;20028;-62
2021/04/21 02:36:11;;;;;;;51.10;29.50;;;;;;;6.08;75.80;101546.47;5041011;28;20531;-62
2021/04/21 02:38:45;;;;;;;48.75;29.17;;;;;;;6.15;76.09;101538.81;5060570;28;20060;-62
2021/04/21 02:41:16;;;;;;;54.10;31.13;;;;;;;6.20;75.69;101540.72;5061273;28;20037;-62
2021/04/21 02:44:17;;;;;;;53.05;31.23;;;;;;;6.24;76.04;101542.63;5063875;28;20027;-62
2021/04/21 02:47:02;;;;;;;51.90;30.55;;;;;;;6.24;75.31;101539.13;4984510;28;20055;-62
2021/04/21 02:49:46;;;;;;;52.00;30.13;;;;;;;6.25;75.11;101544.41;5036356;28;20480;-62
2021/04/21 02:52:35;;;;;;;51.78;30.98;;;;;;;6.24;75.24;101542.63;5042375;28;20037;-62
2021/04/21 02:55:13;;;;;;;51.15;31.23;;;;;;;6.22;76.21;101546.94;5039437;28;20107;-62
2021/04/21 02:57:56;;;;;;;52.95;30.65;;;;;;;6.24;76.67;101541.75;5044071;28;20032;-62
2021/04/21 03:00:33;;;;;;;48.70;29.63;;;;;;;6.24;76.62;101540.00;5045368;28;20051;-62
2021/04/21 03:03:14;;;;;;;51.00;29.52;;;;;;;6.28;76.08;101531.38;5038887;28;20079;-62
2021/04/21 03:05:47;;;;;;;49.63;28.95;;;;;;;6.37;76.69;101536.03;5044121;28;20041;-62
2021/04/21 03:08:19;;;;;;;52.20;31.15;;;;;;;6.41;76.57;101540.56;5042459;28;20045;-62
2021/04/21 03:10:53;;;;;;;49.58;30.15;;;;;;;6.42;76.44;101536.19;5044697;28;20036;-62
2021/04/21 03:13:20;;;;;;;52.08;29.92;;;;;;;6.41;76.98;101535.31;5037649;28;20026;-62
2021/04/21 03:15:50;;;;;;;50.85;30.55;;;;;;;6.39;76.64;101541.34;5045040;28;20033;-62
2021/04/21 03:18:25;;;;;;;53.58;31.23;;;;;;;6.38;77.04;101539.59;5041892;28;20070;-62
2021/04/21 03:21:00;;;;;;;51.47;31.20;;;;;;;6.38;76.94;101537.84;5080379;28;20047;-62
2021/04/21 03:23:27;;;;;;;53.33;31.83;;;;;;;6.40;77.33;101540.50;5100156;28;20482;-63
2021/04/21 03:25:57;;;;;;;50.38;30.65;;;;;;;6.41;78.08;101535.31;5101545;27;20119;-62
2021/04/21 03:28:25;;;;;;;50.70;30.00;;;;;;;6.43;77.86;101532.72;5106817;28;20036;-62
2021/04/21 03:30:56;;;;;;;53.72;32.63;;;;;;;6.47;77.21;101533.75;5104412;28;20028;-62
2021/04/21 03:33:30;;;;;;;50.97;31.92;;;;;;;6.54;77.67;101536.59;5106235;28;20107;-62
2021/04/21 03:35:57;;;;;;;50.58;31.25;;;;;;;6.62;77.60;101532.47;5105293;28;20446;-62
2021/04/21 03:38:23;;;;;;;49.70;30.58;;;;;;;6.67;77.48;101536.97;5107166;28;20031;-62
2021/04/21 03:40:48;;;;;;;51.15;31.00;;;;;;;6.68;77.52;101538.75;5103725;28;20455;-62
2021/04/21 03:43:15;;;;;;;52.35;32.33;;;;;;;6.73;76.84;101539.81;5099883;28;20121;-62
2021/04/21 03:45:46;;;;;;;51.92;31.98;;;;;;;6.79;76.36;101542.63;5106592;28;20375;-62
2021/04/21 03:48:14;;;;;;;51.95;31.80;;;;;;;6.80;77.02;101539.13;5103621;28;20024;-62
2021/04/21 03:50:40;;;;;;;54.00;32.60;;;;;;;6.82;77.07;101537.47;5106571;28;20379;-62
2021/04/21 03:53:08;;;;;;;52.67;32.42;;;;;;;6.81;76.40;101530.41;5103451;28;20047;-62
2021/04/21 03:55:35;;;;;;;53.00;33.08;;;;;;;6.81;76.68;101530.41;5105506;28;20115;-62
2021/04/21 03:58:20;;;;;;;53.63;32.90;;;;;;;6.82;76.11;101526.06;5105788;28;20019;-62
2021/04/21 04:00:51;;;;;;;53.25;31.73;;;;;;;6.74;76.86;101531.97;5099368;28;20035;-62
2021/04/21 04:03:22;;;;;;;52.85;32.42;;;;;;;6.66;77.62;101525.59;5102833;28;20028;-62
2021/04/21 04:05:57;;;;;;;52.08;32.97;;;;;;;6.59;78.07;101535.00;5105456;28;20485;-62
2021/04/21 04:08:25;;;;;;;51.33;32.95;;;;;;;6.57;78.13;101533.19;5104985;28;20043;-62
2021/04/21 04:10:54;;;;;;;55.92;33.97;;;;;;;6.52;78.69;101533.00;5105706;28;20046;-62
2021/04/21 04:13:20;;;;;;;51.80;32.08;;;;;;;6.51;78.89;101536.50;5104332;28;20040;-62
2021/04/21 04:15:48;;;;;;;51.83;32.88;;;;;;;6.50;78.95;101539.97;5105902;27;20027;-62
2021/04/21 04:18:15;;;;;;;55.10;35.38;;;;;;;6.49;79.10;101538.16;5103603;28;20470;-62
2021/04/21 04:20:44;;;;;;;58.33;34.95;;;;;;;6.48;79.39;101538.13;5106460;28;20019;-62
2021/04/21 04:23:12;;;;;;;56.88;35.72;;;;;;;6.49;79.51;101538.16;5099616;28;20036;-62
2021/04/21 04:25:43;;;;;;;54.15;34.42;;;;;;;6.49;79.45;101546.06;5099071;28;20077;-62
2021/04/21 04:28:10;;;;;;;56.25;34.72;;;;;;;6.50;79.78;101547.84;5106096;28;20470;-62
2021/04/21 04:30:38;;;;;;;59.53;35.10;;;;;;;6.50;79.39;101539.97;5102986;28;20032;-61
2021/04/21 04:33:05;;;;;;;61.58;35.50;;;;;;;6.47;79.55;101542.50;5098739;28;20028;-62
2021/04/21 04:35:30;;;;;;;55.45;34.75;;;;;;;6.46;79.34;101540.72;5106127;28;20028;-62
2021/04/21 04:37:58;;;;;;;58.97;36.17;;;;;;;6.43;79.68;101544.13;5103346;27;20597;-61
2021/04/21 04:40:24;;;;;;;58.00;36.80;;;;;;;6.41;79.93;101550.19;5104923;28;20073;-62
2021/04/21 04:42:50;;;;;;;57.58;35.53;;;;;;;6.41;79.88;101553.69;5104329;28;20020;-62
2021/04/21 04:45:16;;;;;;;56.65;35.20;;;;;;;6.44;80.04;101547.66;5103471;28;20063;-62
2021/04/21 04:47:51;;;;;;;58.05;36.03;;;;;;;6.44;79.33;101556.41;5105147;28;20031;-62
2021/04/21 04:50:19;;;;;;;54.95;35.67;;;;;;;6.50;79.59;101562.72;5103877;28;20466;-62
2021/04/21 04:52:47;;;;;;;60.00;36.08;;;;;;;6.53;79.41;101554.94;5104801;28;20073;-62
2021/04/21 04:55:15;;;;;;;56.33;36.65;;;;;;;6.54;78.73;101555.00;5102525;28;20040;-62
2021/04/21 04:57:46;;;;;;;56.95;36.20;;;;;;;6.57;79.03;101557.72;5105751;28;20490;-62
2021/04/21 05:00:14;;;;;;;57.83;37.03;;;;;;;6.62;79.06;101565.72;5102843;28;20024;-62
2021/04/21 05:02:51;;;;;;;58.97;36.40;;;;;;;6.68;78.45;101572.94;5105428;28;20678;-62
2021/04/21 05:05:19;;;;;;;62.00;38.08;;;;;;;6.69;78.54;101572.97;5104052;28;20020;-62
2021/04/21 05:07:57;;;;;;;58.95;37.63;;;;;;;6.71;78.59;101571.28;5103811;28;20046;-62
2021/04/21 05:10:27;;;;;;;58.05;37.17;;;;;;;6.71;78.27;101578.28;5105141;28;20032;-62
2021/04/21 05:12:57;;;;;;;64.78;38.78;;;;;;;6.74;78.90;101575.75;5102604;28;20040;-62
2021/04/21 05:15:37;;;;;;;60.80;38.58;;;;;;;6.76;77.72;101574.06;5104629;28;20035;-62
2021/04/21 05:18:44;;;;;;;63.55;38.45;;;;;;;6.78;77.72;101582.88;5098465;28;20028;-62
2021/04/21 05:21:19;;;;;;;63.60;38.42;;;;;;;6.84;78.12;101583.06;5100303;28;20024;-62
2021/04/21 05:24:06;;;;;;;64.90;39.97;;;;;;;6.88;78.52;101589.34;5103405;28;20027;-63
2021/04/21 05:27:22;;;;;;;67.18;42.20;;;;;;;6.88;77.75;101589.34;5094840;28;20378;-62
2021/04/21 05:30:25;;;;;;;66.97;42.65;;;;;;;6.90;77.92;101596.44;5081972;28;20043;-62
2021/04/21 05:33:15;;;;;;;63.58;41.53;;;;;;;6.96;77.96;101593.06;5082395;28;20088;-63
2021/04/21 05:36:17;;;;;;;65.68;41.85;;;;;;;7.05;77.93;101596.00;5079665;28;20087;-62
2021/04/21 05:39:04;;;;;;;66.18;41.35;;;;;;;7.08;78.08;101596.09;5080339;28;20079;-62
2021/04/21 05:42:02;;;;;;;66.00;42.10;;;;;;;7.13;78.30;101599.75;5073073;28;20430;-61
2021/04/21 05:44:55;;;;;;;66.22;42.17;;;;;;;7.18;78.83;101597.28;5069131;28;20047;-62
2021/04/21 05:47:42;;;;;;;68.07;42.17;;;;;;;7.24;78.75;101597.44;5068356;28;20043;-62
2021/04/21 05:50:29;;;;;;;65.22;41.78;;;;;;;7.30;78.58;101591.47;5068224;28;20032;-62
2021/04/21 05:53:32;;;;;;;67.22;41.85;;;;;;;7.41;77.41;101592.69;5070183;28;20036;-63
2021/04/21 05:56:34;;;;;;;67.60;42.50;;;;;;;7.56;77.18;101600.13;5071913;28;20043;-62
2021/04/21 05:59:17;;;;;;;67.90;44.38;;;;;;;7.73;76.00;101597.09;5070989;28;20072;-63
2021/04/21 06:01:46;;;;;;;70.60;45.03;;;;;;;7.84;76.77;101603.53;5070517;28;20032;-62
2021/04/21 06:04:11;;;;;;;70.13;45.40;;;;;;;7.93;76.89;101602.91;5069254;28;20115;-61
2021/04/21 06:06:36;;;;;;;75.47;45.88;;;;;;;8.02;77.15;101603.13;5097025;28;20119;-62
2021/04/21 06:09:09;;;;;;;75.80;47.72;;;;;;;8.12;76.49;101601.66;5102246;28;20466;-62
2021/04/21 06:11:36;;;;;;;75.25;47.50;;;;;;;8.25;77.29;101601.13;5101402;28;20030;-62
2021/04/21 06:14:04;;;;;;;77.43;49.15;;;;;;;8.33;76.36;101603.94;5101655;28;20103;-61
2021/04/21 06:16:30;;;;;;;74.53;49.08;;;;;;;8.43;76.06;101599.81;5099259;28;20032;-62
2021/04/21 06:18:59;;;;;;;75.70;49.65;;;;;;;8.53;75.57;101609.75;5106165;28;20027;-62
2021/04/21 06:21:26;;;;;;;73.13;48.55;;;;;;;8.59;76.20;101607.28;5100284;28;20123;-63
2021/04/21 06:23:53;;;;;;;75.82;49.40;;;;;;;8.70;75.68;101613.69;5107226;28;20028;-63
2021/04/21 06:26:28;;;;;;;73.45;47.50;;;;;;;8.80;74.51;101603.38;5109525;28;20032;-62
2021/04/21 06:29:06;;;;;;;77.20;49.70;;;;;;;8.93;74.44;101616.00;5099904;28;20028;-62
2021/04/21 06:31:33;;;;;;;76.43;48.05;;;;;;;9.02;74.57;101616.19;5102797;28;20073;-63
2021/04/21 06:33:59;;;;;;;79.28;49.78;;;;;;;9.11;73.95;101617.28;5104918;28;20396;-63
2021/04/21 06:36:31;;;;;;;69.55;46.35;;;;;;;9.19;73.04;101619.22;5106702;28;20082;-63
2021/04/21 06:38:56;;;;;;;74.60;48.37;;;;;;;9.31;72.71;101623.00;5104910;28;20020;-62
2021/04/21 06:41:25;;;;;;;74.18;47.97;;;;;;;9.40;72.87;101624.06;5105267;28;20517;-62
2021/04/21 06:43:51;;;;;;;75.13;47.97;;;;;;;9.46;72.96;101625.06;5106695;28;20370;-62
2021/04/21 06:46:19;;;;;;;75.45;47.05;;;;;;;9.49;72.51;101622.50;5103719;28;20081;-62
2021/04/21 06:48:51;;;;;;;70.88;46.13;;;;;;;9.58;72.29;101622.69;5104711;28;20027;-62
2021/04/21 06:51:19;;;;;;;73.35;47.30;;;;;;;9.69;71.99;101629.09;5105268;28;20456;-62
2021/04/21 06:53:46;;;;;;;73.05;46.47;;;;;;;9.84;71.24;101628.50;5102859;28;20042;-63
2021/04/21 06:56:12;;;;;;;67.50;45.67;;;;;;;9.97;70.73;101631.41;5104029;28;20382;-60
2021/04/21 06:58:39;;;;;;;70.78;46.83;;;;;;;10.00;70.63;101628.81;5100950;28;20047;-62
2021/04/21 07:01:25;;;;;;;66.30;45.22;;;;;;;10.02;70.07;101622.69;5099336;27;20032;-62
2021/04/21 07:03:51;;;;;;;69.13;45.38;;;;;;;10.04;70.65;101620.97;5099248;28;20027;-62
2021/04/21 07:06:16;;;;;;;66.78;45.20;;;;;;;10.12;70.15;101624.66;5101197;28;20039;-62
2021/04/21 07:08:42;;;;;;;66.45;44.42;;;;;;;10.21;70.66;101628.34;5101880;28;20308;-61
2021/04/21 07:11:09;;;;;;;65.45;44.42;;;;;;;10.26;70.12;101632.81;5101883;28;20026;-62
2021/04/21 07:13:44;;;;;;;63.15;43.55;;;;;;;10.26;69.68;101632.81;5099440;28;20441;-62
2021/04/21 07:16:24;;;;;;;64.75;42.92;;;;;;;10.32;69.36;101637.31;5102003;28;20026;-61
2021/04/21 07:18:54;;;;;;;63.78;42.35;;;;;;;10.42;69.66;101641.94;5099518;28;20463;-62
2021/04/21 07:21:21;;;;;;;63.55;42.60;;;;;;;10.56;69.42;101636.91;5100913;28;20035;-62
2021/04/21 07:23:52;;;;;;;61.97;42.33;;;;;;;10.70;68.65;101639.75;5103176;28;20030;-61
2021/04/21 07:26:18;;;;;;;59.33;40.20;;;;;;;10.87;67.76;101639.16;5103403;28;20026;-63
2021/04/21 07:28:45;;;;;;;60.03;40.00;;;;;;;11.05;68.55;101636.78;5102270;28;20028;-62
2021/04/21 07:31:17;;;;;;;57.15;37.97;;;;;;;11.19;66.12;101641.41;5105572;28;20548;-63
2021/04/21 07:33:45;;;;;;;55.55;36.42;;;;;;;11.31;65.23;101646.88;5099897;28;20114;-62
2021/04/21 07:36:17;;;;;;;56.35;35.92;;;;;;;11.47;65.13;101646.19;5107329;28;20115;-63
2021/04/21 07:38:45;;;;;;;54.15;34.25;;;;;;;11.61;64.34;101654.34;5099801;28;20488;-63
2021/04/21 07:41:13;;;;;;;51.60;33.33;;;;;;;11.67;62.62;101648.25;5107035;28;20020;-63
2021/04/21 07:43:48;;;;;;;51.45;32.78;;;;;;;11.73;61.97;101655.38;5104507;28;20383;-62
2021/04/21 07:46:15;;;;;;;47.72;29.95;;;;;;;11.81;60.13;101656.34;5099884;28;20036;-63
2021/04/21 07:48:42;;;;;;;45.83;29.38;;;;;;;11.89;58.70;101656.44;5107251;28;20030;-63
2021/04/21 07:51:17;;;;;;;47.92;28.90;;;;;;;11.86;58.78;101658.16;5103881;28;20035;-63
2021/04/21 07:53:49;;;;;;;46.05;29.40;;;;;;;11.93;59.95;101661.84;5099685;28;20036;-64
2021/04/21 07:56:15;;;;;;;52.70;31.52;;;;;;;12.05;59.67;101662.84;5099822;28;20028;-63
2021/04/21 07:58:41;;;;;;;46.95;29.77;;;;;;;12.16;58.53;101658.56;5107123;28;20030;-63
2021/04/21 08:01:07;;;;;;;43.58;27.70;;;;;;;12.20;57.40;101658.59;5102260;28;20044;-63
2021/04/21 08:03:33;;;;;;;45.40;29.60;;;;;;;12.29;57.80;101664.84;5106836;28;20033;-63
2021/04/21 08:05:59;;;;;;;42.80;28.30;;;;;;;12.53;57.21;101664.22;5104152;28;20115;-63
2021/04/21 08:08:39;;;;;;;47.08;30.95;;;;;;;12.95;56.74;101667.25;5105201;28;20048;-63
2021/04/21 08:11:05;;;;;;;47.35;31.33;;;;;;;13.48;56.17;101668.47;5103539;28;20024;-63
2021/04/21 08:13:48;;;;;;;46.55;29.75;;;;;;;13.88;56.47;101672.22;5105878;28;20035;-62
2021/04/21 08:16:25;;;;;;;48.83;32.13;;;;;;;14.24;54.81;101673.22;5100601;28;20030;-62
2021/04/21 08:18:53;;;;;;;44.17;30.00;;;;;;;14.54;52.93;101666.16;5105331;28;20020;-62
2021/04/21 08:21:40;;;;;;;43.75;29.45;;;;;;;14.97;53.86;101671.53;5103993;28;20112;-62
2021/04/21 08:24:08;;;;;;;42.42;27.48;;;;;;;15.40;50.38;101669.69;5101766;28;20036;-63
2021/04/21 08:26:34;;;;;;;40.90;25.98;;;;;;;15.78;49.69;101672.22;5099853;28;20027;-63
2021/04/21 08:29:00;;;;;;;40.45;25.10;;;;;;;16.07;47.58;101671.22;5105664;28;20073;-62
2021/04/21 08:31:27;;;;;;;38.20;23.70;;;;;;;16.14;46.04;101672.97;5102604;28;20339;-63
2021/04/21 08:33:53;;;;;;;36.60;21.85;;;;;;;16.24;44.67;101675.56;5098357;28;20070;-63
2021/04/21 08:36:19;;;;;;;34.15;21.35;;;;;;;16.44;43.74;101672.78;5100702;28;20059;-62
2021/04/21 08:38:45;;;;;;;33.22;20.02;;;;;;;16.85;41.86;101674.25;5099776;28;20028;-64
2021/04/21 08:41:16;;;;;;;33.75;19.25;;;;;;;17.09;42.29;101678.50;5104096;28;20032;-62
2021/04/21 08:43:46;;;;;;;32.92;18.25;;;;;;;17.16;39.74;101677.53;5098755;28;20563;-63
2021/04/21 08:46:12;;;;;;;31.60;17.80;;;;;;;17.17;38.41;101689.09;5100598;28;20032;-63
2021/04/21 08:48:38;;;;;;;33.17;18.55;;;;;;;17.26;38.99;101681.03;5100126;28;20024;-64
2021/04/21 08:51:06;;;;;;;33.33;18.45;;;;;;;17.52;38.07;101685.22;5099463;28;20065;-63
2021/04/21 08:53:35;;;;;;;31.90;18.35;;;;;;;17.60;38.26;101691.34;5102287;28;20462;-63
2021/04/21 08:56:04;;;;;;;33.38;18.70;;;;;;;17.76;38.34;101686.69;5102544;28;20036;-61
2021/04/21 08:58:32;;;;;;;31.95;19.00;;;;;;;18.09;36.95;101696.09;5104047;28;20027;-62
2021/04/21 09:00:58;;;;;;;31.52;18.40;;;;;;;18.33;36.56;101688.63;5096537;28;20020;-64
2021/04/21 09:03:23;;;;;;;33.72;19.33;;;;;;;18.50;36.16;101684.84;5101397;28;20149;-63
2021/04/21 09:05:48;;;;;;;30.77;18.08;;;;;;;18.90;35.43;101694.91;5101165;28;20039;-64
2021/04/21 09:08:14;;;;;;;32.08;17.83;;;;;;;19.23;34.26;101692.56;5097516;28;20085;-63
2021/04/21 09:10:39;;;;;;;31.23;18.70;;;;;;;19.51;33.52;101698.28;5101816;28;20122;-64
2021/04/21 09:13:05;;;;;;;32.30;17.98;;;;;;;19.65;33.56;101698.03;5097026;28;20039;-63
2021/04/21 09:15:31;;;;;;;30.63;18.15;;;;;;;19.82;32.73;101698.59;5097588;28;20448;-63
2021/04/21 09:17:56;;;;;;;32.10;18.73;;;;;;;19.43;34.31;101697.56;5097228;28;20119;-63
2021/04/21 09:20:25;;;;;;;31.35;18.80;;;;;;;18.74;35.57;101705.88;5095157;28;20100;-63
2021/04/21 09:23:07;;;;;;;32.10;19.38;;;;;;;18.60;36.31;101702.53;5093497;28;20024;-63
2021/04/21 09:25:38;;;;;;;31.17;18.70;;;;;;;19.06;35.08;101703.59;5091943;28;20064;-63
2021/04/21 09:28:05;;;;;;;34.28;19.70;;;;;;;19.79;34.08;101709.38;5095828;28;20027;-63
2021/04/21 09:30:31;;;;;;;31.85;19.40;;;;;;;20.08;33.45;101705.22;5096381;28;20043;-63
2021/04/21 09:32:57;;;;;;;32.00;19.20;;;;;;;20.20;33.60;101714.78;5099059;28;20024;-63
2021/04/21 09:35:24;;;;;;;31.55;19.25;;;;;;;20.76;32.64;101714.41;5098478;28;20487;-62
2021/04/21 09:38:10;;;;;;;32.47;18.73;;;;;;;21.22;32.11;101710.56;5095956;28;20032;-63
2021/04/21 09:40:37;;;;;;;32.35;19.15;;;;;;;21.47;31.07;101709.88;5094378;28;20028;-62
2021/04/21 09:43:04;;;;;;;31.88;19.70;;;;;;;21.67;31.75;101716.53;5098383;28;20023;-62
2021/04/21 09:45:33;;;;;;;34.38;19.27;;;;;;;22.27;30.96;101720.16;5097597;28;20051;-63
2021/04/21 09:48:07;;;;;;;32.40;19.80;;;;;;;22.87;30.32;101715.56;5100169;28;20024;-63
2021/04/21 09:50:32;;;;;;;33.55;19.77;;;;;;;23.08;28.79;101723.88;5097370;28;20110;-63
2021/04/21 09:52:58;;;;;;;33.05;19.90;;;;;;;23.24;28.27;101725.16;5104128;28;20111;-64
2021/04/21 09:55:29;;;;;;;32.95;19.58;;;;;;;23.57;28.71;101721.28;5100738;28;20478;-65
2021/04/21 09:57:55;;;;;;;32.10;20.30;;;;;;;23.95;27.73;101721.72;5097515;28;20031;-64
2021/04/21 10:00:24;;;;;;;34.40;20.00;;;;;;;23.80;27.55;101717.75;5104585;28;20024;-64
2021/04/21 10:02:50;;;;;;;32.97;20.85;;;;;;;23.94;26.98;101715.44;5100545;28;20019;-63
2021/04/21 10:05:29;;;;;;;33.65;19.73;;;;;;;24.71;27.71;101723.25;5104624;28;20020;-65
2021/04/21 10:08:14;;;;;;;32.00;19.48;;;;;;;25.39;27.22;101722.22;5099306;28;20036;-64
2021/04/21 10:10:41;;;;;;;31.48;19.50;;;;;;;25.64;25.43;101727.38;5101669;28;20024;-65
2021/04/21 10:13:40;;;;;;;31.13;18.58;;;;;;;25.61;25.69;101727.53;5103730;28;20056;-63
2021/04/21 10:16:06;;;;;;;32.65;19.17;;;;;;;25.11;25.35;101730.63;5102162;28;20031;-63
2021/04/21 10:18:32;;;;;;;32.65;18.80;;;;;;;25.31;25.15;101722.56;5103190;28;20055;-63
2021/04/21 10:20:57;;;;;;;31.15;18.92;;;;;;;25.84;25.13;101731.03;5102355;28;20063;-63
2021/04/21 10:23:23;;;;;;;32.22;19.35;;;;;;;26.13;24.01;101727.00;5103932;28;20055;-63
2021/04/21 10:25:49;;;;;;;31.02;19.40;;;;;;;26.52;23.54;101723.31;5101115;28;20024;-63
2021/04/21 10:28:15;;;;;;;32.33;19.85;;;;;;;26.77;23.35;101720.28;5102731;28;20359;-63
2021/04/21 10:30:41;;;;;;;31.00;19.98;;;;;;;26.68;23.91;101725.28;5104765;28;20060;-63
2021/04/21 10:33:08;;;;;;;33.78;20.63;;;;;;;26.27;23.70;101726.31;5101241;28;20052;-63
2021/04/21 10:35:33;;;;;;;32.20;19.92;;;;;;;25.68;25.02;101726.31;5103601;28;20051;-63
2021/04/21 10:37:59;;;;;;;33.70;21.75;;;;;;;25.91;26.10;101724.38;5102131;28;20054;-63
2021/04/21 10:40:30;;;;;;;33.47;21.23;;;;;;;26.57;24.88;101725.78;5102531;28;20016;-63
2021/04/21 10:43:04;;;;;;;31.85;20.77;;;;;;;26.77;24.02;101716.72;5102504;28;20050;-63
2021/04/21 10:45:31;;;;;;;34.63;21.48;;;;;;;26.58;24.27;101727.56;5103002;28;20024;-63
2021/04/21 10:47:59;;;;;;;33.67;21.60;;;;;;;26.53;23.90;101725.09;5102126;28;20024;-63
2021/04/21 10:50:43;;;;;;;32.53;19.83;;;;;;;27.18;23.82;101727.28;5102372;28;20025;-63
2021/04/21 10:53:22;;;;;;;30.08;16.63;;;;;;;28.10;21.81;101732.34;5096988;28;20024;-63
2021/04/21 10:55:48;;;;;;;29.17;17.08;;;;;;;27.64;22.10;101726.72;5098380;28;20047;-62
2021/04/21 10:58:13;;;;;;;31.88;17.30;;;;;;;26.78;22.35;101732.00;5104201;28;20069;-62
2021/04/21 11:00:41;;;;;;;30.27;17.58;;;;;;;26.06;23.29;101737.22;5100750;28;20045;-63
2021/04/21 11:03:24;;;;;;;31.73;17.63;;;;;;;25.47;24.20;101733.56;5105384;28;20064;-63
2021/04/21 11:05:59;;;;;;;32.10;17.88;;;;;;;26.07;23.73;101739.00;5104551;28;20115;-63
2021/04/21 11:08:30;;;;;;;31.92;18.85;;;;;;;26.94;22.94;101732.09;5105498;28;20092;-63
2021/04/21 11:11:04;;;;;;;31.60;18.35;;;;;;;27.85;22.54;101726.50;5106754;28;20020;-63
2021/04/21 11:13:36;;;;;;;29.70;17.77;;;;;;;28.57;21.81;101737.91;5103396;28;20439;-61
2021/04/21 11:16:02;;;;;;;30.50;17.35;;;;;;;28.89;20.88;101738.75;5107965;28;20073;-61
2021/04/21 11:18:31;;;;;;;33.10;17.95;;;;;;;29.42;19.39;101736.53;5104952;28;20028;-62
2021/04/21 11:21:05;;;;;;;31.33;18.83;;;;;;;29.51;19.67;101743.28;5102672;28;20375;-62
2021/04/21 11:23:53;;;;;;;31.13;18.17;;;;;;;29.83;20.19;101749.47;5105660;28;20118;-62
2021/04/21 11:26:28;;;;;;;30.50;17.15;;;;;;;29.38;19.83;101744.00;5097741;28;20757;-64
2021/04/21 11:29:05;;;;;;;31.20;17.73;;;;;;;29.45;20.38;101743.66;5098759;28;20089;-64
2021/04/21 11:31:46;;;;;;;35.20;20.00;;;;;;;29.57;20.09;101737.44;5099645;28;20039;-65
2021/04/21 11:34:33;;;;;;;31.27;17.80;;;;;;;30.45;19.95;101739.19;5098627;28;20032;-64
2021/04/21 11:37:16;;;;;;;31.52;19.02;;;;;;;30.62;19.78;101735.38;5102592;28;20032;-64
2021/04/21 11:39:41;;;;;;;32.80;18.63;;;;;;;31.07;19.35;101725.06;5098187;28;20052;-65